createdAt,value
2022-12-11T00:01:17.567Z,94.28
2022-12-11T00:06:17.492Z,93.86
2022-12-11T00:11:17.436Z,93.54
2022-12-11T00:16:18.183Z,93.34
2022-12-11T00:21:17.309Z,92.91
2022-12-11T00:26:17.248Z,93.44
2022-12-11T00:31:17.297Z,92.91
2022-12-11T00:36:17.125Z,92.81
2022-12-11T00:41:17.052Z,92.49
2022-12-11T00:46:17.062Z,92.08
2022-12-11T00:51:16.927Z,92.29
2022-12-11T00:56:16.863Z,91.97
2022-12-11T01:01:16.854Z,92.60
2022-12-11T01:06:16.728Z,92.81
2022-12-11T01:11:16.676Z,92.39
2022-12-11T01:16:16.713Z,92.49
2022-12-11T01:21:16.544Z,92.18
2022-12-11T01:26:16.472Z,92.49
2022-12-11T01:31:16.485Z,92.91
2022-12-11T01:36:16.343Z,92.60
2022-12-11T01:41:16.287Z,91.97
2022-12-11T01:46:16.262Z,91.76
2022-12-11T01:51:16.159Z,91.87
2022-12-11T01:56:16.099Z,91.97
2022-12-11T02:01:16.082Z,91.87
2022-12-11T02:06:15.972Z,91.87
2022-12-11T02:11:15.912Z,91.55
2022-12-11T02:16:15.891Z,91.45
2022-12-11T02:21:15.790Z,91.60
2022-12-11T02:26:15.706Z,91.70
2022-12-11T02:31:15.811Z,92.12
2022-12-11T02:36:15.581Z,92.23
2022-12-11T02:41:15.538Z,91.80
2022-12-11T02:46:15.494Z,92.12
2022-12-11T02:51:15.409Z,92.54
2022-12-11T02:56:15.327Z,92.23
2022-12-11T03:01:15.306Z,92.75
2022-12-11T03:06:15.198Z,93.38
2022-12-11T03:11:15.144Z,93.48
2022-12-11T03:16:15.129Z,92.85
2022-12-11T03:21:15.009Z,93.06
2022-12-11T03:26:14.936Z,93.17
2022-12-11T03:31:14.934Z,93.17
2022-12-11T03:36:14.808Z,93.27
2022-12-11T03:41:14.762Z,93.48
2022-12-11T03:46:14.720Z,93.79
2022-12-11T03:51:14.632Z,93.48
2022-12-11T03:56:14.549Z,93.17
2022-12-11T04:01:14.500Z,92.33
2022-12-11T04:06:14.419Z,91.74
2022-12-11T04:11:14.371Z,91.43
2022-12-11T04:16:14.327Z,92.16
2022-12-11T04:21:14.231Z,92.16
2022-12-11T04:26:14.159Z,92.37
2022-12-11T04:31:14.111Z,92.48
2022-12-11T04:36:14.030Z,92.68
2022-12-11T04:41:13.973Z,92.58
2022-12-11T04:46:13.979Z,91.74
2022-12-11T04:51:13.844Z,91.38
2022-12-11T04:56:13.771Z,91.11
2022-12-11T05:01:13.756Z,90.27
2022-12-11T05:06:13.643Z,89.85
2022-12-11T05:11:13.575Z,90.06
2022-12-11T05:16:13.588Z,89.96
2022-12-11T05:21:13.445Z,90.06
2022-12-11T05:26:13.380Z,89.85
2022-12-11T05:31:13.415Z,89.75
2022-12-11T05:36:13.251Z,89.33
2022-12-11T05:41:13.181Z,88.91
2022-12-11T05:46:13.214Z,88.70
2022-12-11T05:51:13.051Z,88.49
2022-12-11T05:56:12.980Z,87.76
2022-12-11T06:01:12.921Z,88.28
2022-12-11T06:06:12.849Z,87.76
2022-12-11T06:11:12.790Z,88.07
2022-12-11T06:16:12.785Z,88.28
2022-12-11T06:21:12.662Z,88.59
2022-12-11T06:26:12.598Z,88.07
2022-12-11T06:31:12.583Z,87.76
2022-12-11T06:36:12.468Z,88.59
2022-12-11T06:41:12.398Z,89.75
2022-12-11T06:46:12.407Z,91.32
2022-12-11T06:51:12.270Z,90.59
2022-12-11T06:56:12.216Z,90.80
2022-12-11T07:01:12.191Z,90.69
2022-12-11T07:06:12.075Z,90.59
2022-12-11T07:11:12.022Z,90.80
2022-12-11T07:16:12.017Z,90.69
2022-12-11T07:21:11.892Z,91.22
2022-12-11T07:26:11.824Z,90.49
2022-12-11T07:31:11.765Z,91.11
2022-12-11T07:36:11.696Z,90.90
2022-12-11T07:41:11.632Z,91.32
2022-12-11T07:46:11.676Z,91.32
2022-12-11T07:51:11.503Z,91.07
2022-12-11T07:56:11.723Z,90.86
2022-12-11T08:01:11.431Z,90.55
2022-12-11T08:06:11.306Z,89.81
2022-12-11T08:11:11.249Z,89.25
2022-12-11T08:16:11.175Z,89.25
2022-12-11T08:21:11.127Z,89.35
2022-12-11T08:26:11.043Z,88.89
2022-12-11T08:31:11.029Z,88.16
2022-12-11T08:36:10.914Z,87.12
2022-12-11T08:41:10.866Z,87.74
2022-12-11T08:46:10.826Z,87.74
2022-12-11T08:51:10.759Z,86.90
2022-12-11T08:56:10.655Z,86.70
2022-12-11T09:01:10.728Z,86.59
2022-12-11T09:06:10.523Z,86.07
2022-12-11T09:11:10.464Z,86.13
2022-12-11T09:16:10.467Z,86.45
2022-12-11T09:21:10.333Z,86.87
2022-12-11T09:26:10.261Z,86.45
2022-12-11T09:31:10.269Z,86.34
2022-12-11T09:36:10.137Z,86.55
2022-12-11T09:41:10.086Z,86.87
2022-12-11T09:46:10.069Z,86.65
2022-12-11T09:51:09.958Z,87.98
2022-12-11T09:56:09.876Z,89.40
2022-12-11T10:01:09.875Z,86.37
2022-12-11T10:06:09.750Z,84.59
2022-12-11T10:11:09.701Z,84.84
2022-12-11T10:16:09.662Z,83.48
2022-12-11T10:21:09.565Z,83.06
2022-12-11T10:26:09.499Z,82.64
2022-12-11T10:31:09.457Z,83.38
2022-12-11T10:36:09.370Z,82.85
2022-12-11T10:41:09.309Z,83.06
2022-12-11T10:46:09.281Z,83.27
2022-12-11T10:51:09.180Z,83.27
2022-12-11T10:56:09.115Z,83.33
2022-12-11T11:01:09.044Z,82.60
2022-12-11T11:06:08.986Z,82.50
2022-12-11T11:11:08.915Z,82.04
2022-12-11T11:16:08.909Z,81.21
2022-12-11T11:21:08.786Z,79.95
2022-12-11T11:26:08.730Z,80.37
2022-12-11T11:31:08.711Z,80.79
2022-12-11T11:36:08.604Z,80.75
2022-12-11T11:41:14.551Z,81.17
2022-12-11T11:46:08.523Z,80.96
2022-12-11T11:51:08.417Z,80.85
2022-12-11T11:56:08.353Z,80.65
2022-12-11T12:01:08.288Z,81.38
2022-12-11T12:06:13.459Z,79.81
2022-12-11T12:11:08.164Z,78.35
2022-12-11T12:16:29.189Z,78.38
2022-12-11T12:21:09.052Z,79.01
2022-12-11T12:26:07.969Z,79.22
2022-12-11T12:31:07.995Z,78.49
2022-12-11T12:36:07.841Z,79.57
2022-12-11T12:41:07.771Z,79.88
2022-12-11T12:46:07.779Z,80.02
2022-12-11T12:51:07.643Z,80.55
2022-12-11T12:56:07.588Z,81.84
2022-12-11T13:01:07.549Z,81.53
2022-12-11T13:06:07.462Z,82.92
2022-12-11T13:11:07.392Z,82.92
2022-12-11T13:16:07.384Z,83.97
2022-12-11T13:21:07.260Z,82.68
2022-12-11T13:26:07.205Z,82.26
2022-12-11T13:31:07.132Z,82.15
2022-12-11T13:36:11.383Z,81.25
2022-12-11T13:41:07.006Z,81.70
2022-12-11T13:46:07.020Z,82.44
2022-12-11T13:51:06.877Z,82.96
2022-12-11T13:56:06.831Z,83.21
2022-12-11T14:01:06.797Z,84.05
2022-12-11T14:06:06.703Z,84.82
2022-12-11T14:11:06.622Z,84.61
2022-12-11T14:16:06.640Z,84.82
2022-12-11T14:21:06.500Z,85.24
2022-12-11T14:26:06.462Z,85.24
2022-12-11T14:31:06.365Z,85.07
2022-12-11T14:36:06.310Z,85.38
2022-12-11T14:41:06.230Z,85.32
2022-12-11T14:46:06.258Z,85.74
2022-12-11T14:51:06.100Z,86.16
2022-12-11T14:56:06.045Z,86.26
2022-12-11T15:01:05.970Z,87.31
2022-12-11T15:06:05.924Z,86.62
2022-12-11T15:11:05.843Z,87.50
2022-12-11T15:16:05.797Z,87.60
2022-12-11T15:21:05.713Z,87.60
2022-12-11T15:26:05.669Z,87.96
2022-12-11T15:31:05.668Z,88.69
2022-12-11T15:36:05.543Z,88.80
2022-12-11T15:41:05.467Z,88.76
2022-12-11T15:46:05.540Z,88.97
2022-12-11T15:51:05.341Z,89.18
2022-12-11T15:56:05.298Z,88.23
2022-12-11T16:01:05.298Z,88.86
2022-12-11T16:06:05.174Z,89.07
2022-12-11T16:11:05.098Z,88.97
2022-12-11T16:16:05.091Z,89.49
2022-12-11T16:21:04.971Z,89.70
2022-12-11T16:26:04.908Z,89.70
2022-12-11T16:31:04.940Z,90.23
2022-12-11T16:36:04.778Z,90.19
2022-12-11T16:41:04.707Z,90.19
2022-12-11T16:46:04.786Z,90.50
2022-12-11T16:51:04.577Z,90.71
2022-12-11T16:56:04.520Z,90.92
2022-12-11T17:01:04.520Z,91.13
2022-12-11T17:06:04.402Z,91.44
2022-12-11T17:11:04.328Z,91.55
2022-12-11T17:16:04.301Z,91.55
2022-12-11T17:21:04.190Z,91.66
2022-12-11T17:26:04.143Z,91.87
2022-12-11T17:31:04.145Z,91.97
2022-12-11T17:36:04.011Z,92.08
2022-12-11T17:41:03.928Z,92.18
2022-12-11T17:46:03.994Z,92.60
2022-12-11T17:51:03.800Z,92.91
2022-12-11T17:56:03.859Z,93.13
2022-12-11T18:01:03.671Z,93.23
2022-12-11T18:06:03.612Z,93.13
2022-12-11T18:11:03.542Z,93.23
2022-12-11T18:16:03.600Z,93.23
2022-12-11T18:21:03.411Z,93.23
2022-12-11T18:26:03.350Z,93.34
2022-12-11T18:31:03.405Z,93.48
2022-12-11T18:36:03.220Z,93.80
2022-12-11T18:41:03.149Z,94.12
2022-12-11T18:46:03.093Z,94.22
2022-12-11T18:51:03.024Z,94.32
2022-12-11T18:56:02.968Z,94.43
2022-12-11T19:01:02.966Z,94.43
2022-12-11T19:06:02.840Z,94.43
2022-12-11T19:11:02.777Z,94.53
2022-12-11T19:16:02.761Z,94.53
2022-12-11T19:21:08.733Z,94.64
2022-12-11T19:26:02.586Z,94.75
2022-12-11T19:31:02.594Z,94.70
2022-12-11T19:36:02.467Z,94.60
2022-12-11T19:41:02.390Z,94.70
2022-12-11T19:46:02.334Z,94.70
2022-12-11T19:51:02.266Z,94.81
2022-12-11T19:56:02.212Z,95.33
2022-12-11T20:01:02.194Z,95.23
2022-12-11T20:06:02.092Z,95.12
2022-12-11T20:11:02.018Z,94.91
2022-12-11T20:16:01.989Z,95.01
2022-12-11T20:21:01.900Z,94.91
2022-12-11T20:26:01.829Z,94.91
2022-12-11T20:31:01.767Z,95.12
2022-12-11T20:36:01.702Z,95.01
2022-12-11T20:41:01.643Z,94.91
2022-12-11T20:46:01.646Z,95.01
2022-12-11T20:51:01.513Z,95.12
2022-12-11T20:56:01.461Z,95.23
2022-12-11T21:01:01.457Z,95.23
2022-12-11T21:06:01.318Z,95.33
2022-12-11T21:11:01.240Z,96.28
2022-12-11T21:16:01.222Z,95.86
2022-12-11T21:21:01.112Z,95.75
2022-12-11T21:26:01.052Z,95.54
2022-12-11T21:31:00.980Z,95.54
2022-12-11T21:36:00.922Z,95.54
2022-12-11T21:41:00.861Z,95.44
2022-12-11T21:46:02.069Z,95.33
2022-12-11T21:51:00.735Z,95.33
2022-12-11T21:56:00.664Z,95.23
2022-12-11T22:01:00.666Z,95.12
2022-12-11T22:06:00.531Z,95.23
2022-12-11T22:11:00.467Z,95.44
2022-12-11T22:16:00.406Z,95.44
2022-12-11T22:21:00.328Z,95.23
2022-12-11T22:26:00.270Z,97.54
2022-12-11T22:31:00.270Z,96.80
2022-12-11T22:36:00.140Z,95.96
2022-12-11T22:41:00.083Z,95.65
2022-12-11T22:46:00.059Z,95.54
2022-12-11T22:50:59.945Z,95.54
2022-12-11T22:55:59.879Z,95.65
2022-12-11T23:00:59.816Z,95.65
2022-12-11T23:06:04.869Z,95.65
2022-12-11T23:10:59.722Z,95.54
2022-12-11T23:15:59.683Z,95.44
2022-12-11T23:20:59.559Z,95.27
2022-12-11T23:25:59.490Z,95.37
2022-12-11T23:30:59.453Z,95.23
2022-12-11T23:35:59.363Z,95.33
2022-12-11T23:40:59.293Z,95.12
2022-12-11T23:45:59.292Z,95.06
2022-12-11T23:50:59.159Z,95.06
2022-12-11T23:55:59.118Z,95.17
